Flight Track Log - Related Links

Times and Time Zones

All times are in EDT time to prevent confusion due to time zone crossing. See the CUA5906 flight status page for this flight to view local times or setup timezone preferences in your user account.

Time Position Orientation Groundspeed Altitude Reporting Facility
EDT Latitude Longitude Course Direction KTS MPH feet Rate Location/Type
Mon 01:28:00 AM 35.0616 118.6546 340° North  Level Estimated
Mon 01:29:00 AM 35.1432 118.6179 340° North  Level Estimated
Mon 01:30:00 AM 35.2248 118.5810 340° North  Level Estimated
Mon 01:31:00 AM 35.3063 118.5441 340° North  Level Estimated
Mon 01:32:00 AM 35.3879 118.5071 340° North  Level Estimated
Mon 01:33:00 AM 35.4695 118.4701 340° North  Level Estimated
Mon 01:34:00 AM 35.5510 118.4330 340° North  Level Estimated
Mon 01:35:00 AM 35.6326 118.3958 340° North  Level Estimated
Mon 01:36:00 AM 35.7141 118.3585 340° North  Level Estimated
Mon 01:37:00 AM 35.7956 118.3211 340° North  Level Estimated
Mon 01:38:00 AM 35.8771 118.2837 340° North  Level Estimated
Mon 01:39:00 AM 35.9586 118.2462 340° North  Level Estimated
Mon 01:40:00 AM 36.0401 118.2086 340° North  Level Estimated
Mon 01:41:00 AM 36.1216 118.1710 340° North  Level Estimated
Mon 01:42:00 AM 36.2030 118.1332 340° North  Level Estimated
Mon 01:43:00 AM 36.2845 118.0954 339° North  Level Estimated
Mon 01:44:00 AM 36.3659 118.0575 339° North  Level Estimated
Mon 01:45:00 AM 36.4473 118.0195 339° North  Level Estimated
Mon 01:46:00 AM 36.5288 117.9815 339° North  Level Estimated
Mon 01:47:00 AM 36.6101 117.9433 339° North  Level Estimated
Mon 01:48:00 AM 36.6915 117.9051 339° North  Level Estimated
Mon 01:49:00 AM 36.7729 117.8668 339° North  Level Estimated
Mon 01:50:00 AM 36.8543 117.8284 339° North  Level Estimated
Mon 01:51:00 AM 36.9356 117.7899 339° North  Level Estimated
Mon 01:52:00 AM 37.0170 117.7514 339° North  Level Estimated
Mon 01:53:00 AM 37.0983 117.7128 339° North  Level Estimated
Mon 01:54:00 AM 37.1796 117.6741 339° North  Level Estimated
Mon 01:55:00 AM 37.2609 117.6353 339° North  Level Estimated
Mon 01:56:00 AM 37.3422 117.5964 339° North  Level Estimated
Mon 01:57:00 AM 37.4235 117.5574 339° North  Level Estimated
Mon 01:58:00 AM 37.5047 117.5184 339° North  Level Estimated
Mon 01:59:00 AM 37.5860 117.4792 339° North  Level Estimated
Mon 02:00:00 AM 37.6672 117.4400 339° North  Level Estimated
Mon 02:01:00 AM 37.7484 117.4007 339° North  Level Estimated
Mon 02:02:00 AM 37.8297 117.3613 339° North  Level Estimated
Mon 02:03:00 AM 37.9109 117.3219 339° North  Level Estimated
Mon 02:04:00 AM 37.9920 117.2823 339° North  Level Estimated
Mon 02:05:00 AM 38.0732 117.2426 339° North  Level Estimated
Mon 02:06:00 AM 38.1544 117.2029 339° North  Level Estimated
Mon 02:07:00 AM 38.2355 117.1631 339° North  Level Estimated
Mon 02:08:00 AM 38.3166 117.1232 339° North  Level Estimated
Mon 02:09:00 AM 38.3978 117.0831 339° North  Level Estimated
Mon 02:10:00 AM 38.4789 117.0430 339° North  Level Estimated
Mon 02:11:00 AM 38.5599 117.0029 339° North  Level Estimated
Mon 02:12:00 AM 38.6410 116.9626 339° North  Level Estimated
Mon 02:13:00 AM 38.7221 116.9222 339° North  Level Estimated
Mon 02:14:00 AM 38.8031 116.8818 339° North  Level Estimated
Mon 02:15:00 AM 38.8842 116.8412 339° North  Level Estimated
Mon 02:16:00 AM 38.9652 116.8006 339° North  Level Estimated
Mon 02:17:00 AM 39.0462 116.7598 339° North  Level Estimated
Mon 02:18:00 AM 39.1272 116.7190 339° North  Level Estimated
Mon 02:19:00 AM 39.2081 116.6780 339° North  Level Estimated
Mon 02:20:00 AM 39.2891 116.6370 339° North  Level Estimated
Mon 02:21:00 AM 39.3701 116.5959 339° North  Level Estimated
Mon 02:22:00 AM 39.4510 116.5547 339° North  Level Estimated
Mon 02:23:00 AM 39.5319 116.5134 339° North  Level Estimated
Mon 02:24:00 AM 39.6128 116.4720 338° Northwest  Level Estimated
Mon 02:25:00 AM 39.6937 116.4305 338° Northwest  Level Estimated
Mon 02:26:00 AM 39.7746 116.3889 338° Northwest  Level Estimated
Mon 02:27:00 AM 39.7794 116.3864 338° Northwest  Level Estimated
Mon 02:28:00 AM 39.7794 116.3864 North  Level Estimated
Mon 02:29:00 AM 39.7794 116.3864 North  Level Estimated
Mon 02:30:00 AM 39.7794 116.3864 North  Level Estimated
Mon 02:31:00 AM 39.7794 116.3864 North  Level Estimated
Mon 02:32:00 AM 39.7794 116.3864 North  Level Estimated
Mon 02:33:00 AM 39.7794 116.3864 North  Level Estimated
Mon 02:34:00 AM 39.7794 116.3864 North  Level Estimated
Mon 02:35:00 AM 39.7794 116.3864 North  Level Estimated
Mon 02:36:00 AM 39.7794 116.3864 North  Level Estimated
Mon 02:37:00 AM 39.7794 116.3864 North  Level Estimated
Mon 02:38:00 AM 39.7794 116.3864 North  Level Estimated
Mon 02:39:00 AM 39.7794 116.3864 North  Level Estimated

Login

Don't have an account? Register now (free) for customized features, flight alerts, and more!